Time;durP1;ratioP1;P1;durP2;ratioP2;P2;SDS_P1;SDS_P2;PMS_P1;PMS_P2;Temp;Humidity;BMP_temperature;BMP_pressure;BME280_temperature;BME280_humidity;BME280_pressure;Samples;Min_cycle;Max_cycle;Signal;HPM_P1;HPM_P2
2022/06/04 00:00:37;;;;;;;8.48;2.85;;;;;;;20.74;40.42;99797.34;5012209;28;20060;-70
2022/06/04 00:03:02;;;;;;;5.88;3.03;;;;;;;20.54;40.84;99799.38;5010657;28;20042;-70
2022/06/04 00:05:31;;;;;;;10.35;3.25;;;;;;;20.67;40.47;99798.44;4994397;28;20065;-70
2022/06/04 00:07:58;;;;;;;10.30;3.25;;;;;;;20.62;40.42;99811.78;4961630;28;20046;-69
2022/06/04 00:15:57;;;;;;;11.57;3.10;;;;;;;20.29;41.18;99782.31;4994855;28;20053;-71
2022/06/04 00:18:23;;;;;;;8.30;2.75;;;;;;;20.44;40.84;99807.09;4975713;28;20045;-70
2022/06/04 00:20:50;;;;;;;9.15;3.22;;;;;;;20.37;40.86;99792.00;4991991;28;20042;-70
2022/06/04 00:23:16;;;;;;;3.67;2.47;;;;;;;20.34;40.48;99795.16;4990544;28;20522;-70
2022/06/04 00:25:47;;;;;;;6.47;3.10;;;;;;;20.48;40.81;99783.22;4960064;28;20046;-70
2022/06/04 00:28:13;;;;;;;;;;;;;;;20.72;39.98;99802.16;5010082;28;20529;-71
2022/06/04 00:30:39;;;;;;;13.95;3.40;;;;;;;20.25;40.96;99799.94;4993726;28;20435;-69
2022/06/04 00:33:05;;;;;;;7.65;2.85;;;;;;;20.27;40.64;99788.94;5009540;28;20041;-73
2022/06/04 00:35:31;;;;;;;4.57;2.63;;;;;;;20.41;40.46;99798.63;4993662;28;20042;-70
2022/06/04 00:37:57;;;;;;;7.00;2.70;;;;;;;20.32;40.37;99799.91;4977331;28;20392;-70
2022/06/04 00:40:55;;;;;;;6.30;3.00;;;;;;;20.73;39.59;99801.09;4977294;28;20049;-70
2022/06/04 00:43:21;;;;;;;6.13;2.75;;;;;;;20.52;40.40;99806.03;4976250;28;20053;-71
2022/06/04 00:46:21;;;;;;;6.20;2.55;;;;;;;20.70;39.64;99774.53;5009957;28;20107;-71
2022/06/04 00:48:47;;;;;;;4.03;2.60;;;;;;;20.45;40.02;99802.56;4993317;28;20956;-71
2022/06/04 00:51:13;;;;;;;13.18;2.92;;;;;;;20.26;40.59;99804.31;4977064;28;20081;-70
2022/06/04 00:53:40;;;;;;;8.35;2.83;;;;;;;19.95;40.38;99740.38;4993544;28;20133;-70
2022/06/04 00:56:14;;;;;;;5.63;2.90;;;;;;;20.55;40.30;99805.59;4993270;28;20037;-71
2022/06/04 00:59:13;;;;;;;13.68;2.85;;;;;;;20.59;39.67;99807.63;4993554;28;20120;-70
2022/06/04 01:01:49;;;;;;;5.10;3.17;;;;;;;20.38;40.30;99807.16;4993206;28;20141;-70
2022/06/04 01:04:47;;;;;;;4.32;2.92;;;;;;;20.48;40.24;99807.50;4976752;28;20049;-71
2022/06/04 01:07:31;;;;;;;7.15;2.78;;;;;;;20.49;40.31;99801.91;5009670;28;20041;-70
2022/06/04 01:10:13;;;;;;;7.05;2.88;;;;;;;20.30;39.91;99772.31;5009198;28;20060;-70
2022/06/04 01:13:14;;;;;;;6.70;2.92;;;;;;;20.51;40.13;99805.19;5011037;28;20187;-70
2022/06/04 01:16:13;;;;;;;8.65;2.90;;;;;;;20.42;40.37;99808.38;4993537;28;20077;-70
2022/06/04 01:19:06;;;;;;;6.57;2.70;;;;;;;20.53;40.47;99810.38;5004769;28;20054;-70
2022/06/04 01:22:11;;;;;;;8.77;3.17;;;;;;;20.47;40.40;99811.22;5009339;28;20100;-70
2022/06/04 01:24:49;;;;;;;8.55;2.92;;;;;;;20.57;39.66;99800.81;4957041;28;20061;-69
2022/06/04 01:27:25;;;;;;;3.45;2.60;;;;;;;20.46;39.92;99813.13;5009056;28;20054;-71
2022/06/04 01:29:58;;;;;;;5.63;2.72;;;;;;;20.29;40.40;99813.84;5025533;28;20037;-69
2022/06/04 01:32:40;;;;;;;8.10;3.00;;;;;;;20.41;40.62;99817.50;5008777;28;20107;-69
2022/06/04 01:35:15;;;;;;;3.97;2.85;;;;;;;20.31;40.63;99811.75;4976551;28;20144;-70
2022/06/04 01:37:52;;;;;;;5.72;2.85;;;;;;;20.28;40.57;99818.41;5010559;28;20077;-69
2022/06/04 01:41:07;;;;;;;4.72;2.88;;;;;;;20.22;40.73;99818.47;4992740;28;20042;-69
2022/06/04 01:43:11;;;;;;;8.50;2.80;;;;;;;20.18;40.80;99814.50;5001784;28;20103;-69
2022/06/04 01:45:39;;;;;;;8.63;2.45;;;;;;;20.16;40.69;99814.72;4995837;28;20068;-69
2022/06/04 01:48:09;;;;;;;4.82;2.88;;;;;;;20.28;40.83;99823.78;4996337;28;20041;-69
2022/06/04 01:50:45;;;;;;;14.27;2.80;;;;;;;20.55;40.11;99829.88;4997167;28;20523;-68
2022/06/04 01:53:15;;;;;;;5.10;2.90;;;;;;;20.45;39.81;99826.84;4980752;28;20088;-68
2022/06/04 01:55:49;;;;;;;5.13;2.30;;;;;;;20.47;39.99;99824.72;5013257;28;20084;-69
2022/06/04 01:58:19;;;;;;;6.25;2.60;;;;;;;20.39;40.00;99827.72;5013044;28;20065;-69
2022/06/04 02:00:49;;;;;;;6.38;2.63;;;;;;;20.51;40.40;99826.78;4996854;28;20041;-70
2022/06/04 02:03:15;;;;;;;4.15;2.30;;;;;;;20.30;40.21;99826.28;4980453;28;20511;-69
2022/06/04 02:06:04;;;;;;;8.75;2.70;;;;;;;20.59;39.82;99823.81;5011876;28;20111;-70
2022/06/04 02:08:55;;;;;;;3.58;2.50;;;;;;;20.71;39.17;99819.38;4994230;28;20054;-70
2022/06/04 02:11:23;;;;;;;10.27;2.88;;;;;;;20.59;40.09;99829.22;4967434;28;20042;-70
2022/06/04 02:13:51;;;;;;;3.83;2.90;;;;;;;20.56;40.06;99831.53;4994026;28;20140;-68
2022/06/04 02:16:26;;;;;;;6.53;2.67;;;;;;;20.62;40.07;99827.97;4993818;28;20042;-69
2022/06/04 02:18:58;;;;;;;5.38;2.70;;;;;;;20.55;40.00;99824.47;4961792;28;20046;-70
2022/06/04 02:21:25;;;;;;;6.20;2.80;;;;;;;20.55;40.31;99824.47;4994524;28;20422;-70
2022/06/04 02:23:51;;;;;;;8.45;2.58;;;;;;;20.39;40.35;99820.41;4995987;28;20046;-69
2022/06/04 02:26:18;;;;;;;4.55;2.80;;;;;;;20.42;40.10;99800.28;4963735;28;20077;-70
2022/06/04 02:28:45;;;;;;;5.05;2.72;;;;;;;20.59;40.04;99831.13;4996449;28;20329;-69
2022/06/04 02:31:35;;;;;;;7.13;2.90;;;;;;;20.77;39.93;99826.59;4979631;28;20132;-73
2022/06/04 02:34:33;;;;;;;9.38;3.00;;;;;;;20.81;39.53;99824.28;4979755;28;20050;-73
2022/06/04 02:37:29;;;;;;;5.90;2.65;;;;;;;21.14;39.37;99835.69;5012041;28;20092;-73
2022/06/04 02:40:12;;;;;;;7.78;2.40;;;;;;;20.86;38.95;99828.00;4996098;28;20052;-72
2022/06/04 02:43:01;;;;;;;4.65;2.63;;;;;;;20.90;39.17;99837.31;4996224;28;20092;-70
2022/06/04 02:45:52;;;;;;;3.53;2.88;;;;;;;21.11;39.39;99822.63;4963287;28;20412;-70
2022/06/04 02:48:28;;;;;;;6.88;2.80;;;;;;;21.03;39.17;99807.53;5010972;28;20093;-70
2022/06/04 02:51:19;;;;;;;6.88;2.58;;;;;;;21.20;38.89;99830.22;4995503;28;20038;-70
2022/06/04 02:53:45;;;;;;;9.10;2.70;;;;;;;20.88;39.24;99800.78;4995175;28;20049;-69
2022/06/04 02:56:20;;;;;;;4.93;2.90;;;;;;;21.31;39.13;99817.88;4979044;28;20052;-69
2022/06/04 02:58:49;;;;;;;7.70;2.50;;;;;;;21.25;39.26;99829.56;4995506;28;20049;-69
2022/06/04 03:01:16;;;;;;;9.15;2.88;;;;;;;21.24;38.96;99830.59;4995500;28;20084;-70
2022/06/04 03:03:43;;;;;;;6.88;3.03;;;;;;;21.26;39.36;99823.97;4978720;28;20426;-69
2022/06/04 03:06:23;;;;;;;7.53;2.90;;;;;;;21.50;38.74;99839.28;4978842;28;20041;-70
2022/06/04 03:08:49;;;;;;;9.30;3.30;;;;;;;21.19;39.34;99831.28;5011383;28;20073;-69
2022/06/04 03:11:15;;;;;;;11.45;3.05;;;;;;;21.26;39.19;99833.94;4995455;28;20479;-68
2022/06/04 03:13:41;;;;;;;4.35;2.38;;;;;;;20.97;39.26;99805.69;4979002;28;20435;-68
2022/06/04 03:16:06;;;;;;;3.95;2.80;;;;;;;21.10;39.24;99837.16;4978828;28;20472;-70
2022/06/04 03:18:32;;;;;;;15.52;3.13;;;;;;;21.29;39.36;99833.47;4978646;28;20423;-69
2022/06/04 03:20:58;;;;;;;11.27;2.70;;;;;;;21.30;39.19;99843.22;5027733;28;20046;-69
2022/06/04 03:23:23;;;;;;;8.70;2.92;;;;;;;21.44;39.25;99855.56;4995013;28;20050;-69
2022/06/04 03:25:49;;;;;;;6.75;2.88;;;;;;;21.47;39.08;99855.97;4995007;28;20037;-68
2022/06/04 03:28:15;;;;;;;11.23;2.63;;;;;;;21.54;39.21;99853.19;4978333;28;20049;-69
2022/06/04 03:30:41;;;;;;;4.43;2.70;;;;;;;21.59;39.37;99846.06;4978458;28;20195;-68
2022/06/04 03:33:07;;;;;;;4.20;2.47;;;;;;;21.64;39.42;99845.38;4994611;28;20123;-69
2022/06/04 03:35:34;;;;;;;4.78;2.42;;;;;;;21.70;39.03;99853.44;5010927;28;20038;-69
2022/06/04 03:37:59;;;;;;;4.65;2.13;;;;;;;21.77;38.63;99868.78;4994686;28;20503;-71
2022/06/04 03:40:26;;;;;;;5.40;2.15;;;;;;;21.73;38.71;99830.53;4978489;28;20050;-72
2022/06/04 03:42:51;;;;;;;6.28;2.40;;;;;;;21.84;38.39;99851.44;5011187;28;20041;-71
2022/06/04 03:45:17;;;;;;;4.45;2.13;;;;;;;21.90;38.01;99847.00;4978757;28;20049;-71
2022/06/04 03:47:43;;;;;;;4.63;1.90;;;;;;;22.05;37.81;99848.25;4994228;28;20049;-72
2022/06/04 03:50:12;;;;;;;5.75;2.17;;;;;;;22.29;37.37;99855.47;4978415;28;20491;-73
2022/06/04 03:52:38;;;;;;;4.70;2.10;;;;;;;22.20;37.98;99854.13;4994554;28;20129;-74
2022/06/04 03:55:05;;;;;;;4.00;2.05;;;;;;;22.39;37.82;99855.75;4962169;28;20133;-73
2022/06/04 03:57:39;;;;;;;7.13;2.20;;;;;;;22.46;37.05;99848.38;4994231;28;20053;-72
2022/06/04 04:00:11;;;;;;;3.55;1.90;;;;;;;22.54;36.70;99852.66;4994935;28;20219;-71
2022/06/04 04:02:41;;;;;;;5.78;2.00;;;;;;;22.61;37.36;99853.38;4994202;28;20049;-72
2022/06/04 04:05:08;;;;;;;4.13;2.20;;;;;;;22.63;37.18;99846.66;4994226;28;20065;-73
2022/06/04 04:07:34;;;;;;;3.97;1.92;;;;;;;22.64;37.04;99851.06;5025685;28;20042;-69
2022/06/04 04:10:00;;;;;;;2.90;1.90;;;;;;;22.60;36.76;99851.75;4993831;28;20050;-69
2022/06/04 04:12:27;;;;;;;5.30;2.00;;;;;;;22.95;36.71;99856.22;4994144;28;20085;-68
2022/06/04 04:14:53;;;;;;;7.05;2.13;;;;;;;22.92;36.59;99851.25;5010673;28;21074;-70
2022/06/04 04:17:19;;;;;;;7.93;2.05;;;;;;;23.04;36.60;99856.69;4994070;28;20041;-70
2022/06/04 04:19:45;;;;;;;7.50;1.98;;;;;;;23.00;36.74;99855.50;4993931;28;20049;-70
2022/06/04 04:22:11;;;;;;;4.68;1.90;;;;;;;23.20;36.26;99854.09;4977364;28;20062;-69
2022/06/04 04:24:37;;;;;;;6.05;1.80;;;;;;;23.17;36.63;99841.03;4961536;28;20072;-69
2022/06/04 04:27:03;;;;;;;5.65;2.25;;;;;;;23.28;36.01;99848.38;4977330;28;20045;-69
2022/06/04 04:29:28;;;;;;;3.30;2.10;;;;;;;23.15;36.28;99848.59;5010104;28;20436;-70
2022/06/04 04:31:54;;;;;;;5.35;1.75;;;;;;;23.08;36.39;99855.16;4993787;28;20046;-69
2022/06/04 04:34:20;;;;;;;6.90;1.88;;;;;;;22.99;36.74;99848.41;4993816;28;20054;-69
2022/06/04 04:36:48;;;;;;;6.68;1.90;;;;;;;22.85;36.53;99845.09;5008971;28;20392;-69
2022/06/04 04:39:16;;;;;;;6.07;2.05;;;;;;;23.03;36.15;99852.34;4993336;28;20042;-70
2022/06/04 04:41:41;;;;;;;3.85;1.80;;;;;;;23.18;36.03;99853.53;4977447;28;20049;-70
2022/06/04 04:44:07;;;;;;;4.38;2.10;;;;;;;23.26;35.85;99855.09;4993668;28;20056;-71
2022/06/04 04:46:33;;;;;;;6.80;2.67;;;;;;;23.23;36.21;99837.38;4977121;28;20050;-70
2022/06/04 04:48:59;;;;;;;4.85;2.05;;;;;;;23.41;36.16;99858.16;4993094;28;20045;-71
2022/06/04 04:51:26;;;;;;;3.95;1.95;;;;;;;23.51;35.47;99858.41;5010049;28;20041;-69
2022/06/04 04:53:53;;;;;;;4.13;1.90;;;;;;;23.69;35.22;99854.75;4993588;28;20049;-68
2022/06/04 04:56:21;;;;;;;4.85;1.98;;;;;;;23.76;35.21;99853.56;4976715;28;20049;-69
2022/06/04 04:58:47;;;;;;;4.68;1.80;;;;;;;23.60;35.19;99846.16;4992972;28;20054;-70
2022/06/04 05:01:23;;;;;;;8.38;1.98;;;;;;;23.98;34.42;99860.03;5009537;28;20124;-69
2022/06/04 05:03:49;;;;;;;3.33;1.90;;;;;;;23.86;34.67;99864.63;4993222;28;20456;-69
2022/06/04 05:06:16;;;;;;;3.60;1.90;;;;;;;23.93;34.88;99837.34;5009140;28;20523;-70
2022/06/04 05:08:43;;;;;;;4.70;2.13;;;;;;;24.14;34.82;99858.47;5009451;28;20037;-69
2022/06/04 05:11:14;;;;;;;5.57;1.98;;;;;;;24.36;33.99;99867.59;4992984;28;20521;-69
2022/06/04 05:13:40;;;;;;;3.33;1.80;;;;;;;24.17;33.76;99868.84;5009031;28;20526;-69
2022/06/04 05:16:07;;;;;;;5.30;1.60;;;;;;;24.19;33.56;99864.81;4976566;28;20439;-68
2022/06/04 05:18:33;;;;;;;3.08;1.60;;;;;;;24.37;33.74;99872.78;4976731;28;20046;-69
2022/06/04 05:21:20;;;;;;;3.97;1.63;;;;;;;24.43;32.74;99863.66;4992929;28;20037;-69
2022/06/04 05:23:45;;;;;;;5.38;1.60;;;;;;;24.20;33.32;99865.66;4992984;28;20046;-68
2022/06/04 05:26:11;;;;;;;8.15;1.80;;;;;;;24.40;33.83;99868.78;5010625;28;20072;-69
2022/06/04 05:28:37;;;;;;;3.63;1.73;;;;;;;24.44;32.97;99859.91;4976630;28;20056;-68
2022/06/04 05:31:03;;;;;;;11.18;2.03;;;;;;;24.49;31.82;99864.59;4976465;28;20042;-68
2022/06/04 05:33:29;;;;;;;1.50;1.40;;;;;;;24.59;32.16;99859.34;5025582;28;20037;-68
2022/06/04 05:35:55;;;;;;;3.83;1.50;;;;;;;24.81;32.06;99863.91;5009147;28;20500;-68
2022/06/04 05:38:21;;;;;;;6.38;2.10;;;;;;;24.70;32.04;99853.91;5008875;28;20042;-68
2022/06/04 05:40:47;;;;;;;1.58;1.33;;;;;;;24.73;31.92;99860.75;5010278;28;20411;-69
2022/06/04 05:43:12;;;;;;;8.98;1.60;;;;;;;24.81;31.77;99868.50;4976747;28;20046;-69
2022/06/04 05:45:38;;;;;;;2.25;1.30;;;;;;;25.05;31.82;99869.22;4992791;28;20581;-69
2022/06/04 05:48:04;;;;;;;2.80;1.50;;;;;;;25.23;30.75;99863.53;4992629;28;20458;-69
2022/06/04 05:50:30;;;;;;;3.08;1.33;;;;;;;25.11;31.62;99858.16;5009137;28;20081;-69
2022/06/04 05:52:56;;;;;;;4.68;1.50;;;;;;;25.19;31.25;99860.47;4976998;28;20045;-68
2022/06/04 05:55:22;;;;;;;2.17;1.25;;;;;;;25.13;30.84;99855.19;4993459;28;20050;-69
2022/06/04 05:57:48;;;;;;;3.38;1.50;;;;;;;25.13;31.68;99853.28;4993171;28;20038;-69
2022/06/04 06:00:14;;;;;;;4.55;1.40;;;;;;;25.11;31.18;99850.00;4976624;28;20049;-70
2022/06/04 06:02:42;;;;;;;3.08;1.38;;;;;;;25.01;30.67;99857.16;4992722;28;20477;-73
2022/06/04 06:05:08;;;;;;;3.40;1.35;;;;;;;25.35;30.39;99840.66;4976577;28;20045;-71
2022/06/04 06:07:34;;;;;;;3.70;1.55;;;;;;;25.47;30.35;99840.53;4993080;28;20456;-71
2022/06/04 06:10:00;;;;;;;3.42;1.40;;;;;;;25.51;30.16;99850.66;4971137;28;20048;-72
2022/06/04 06:12:26;;;;;;;4.97;1.35;;;;;;;25.57;29.74;99840.69;5006134;28;20383;-70
2022/06/04 06:14:51;;;;;;;5.82;1.38;;;;;;;25.42;30.33;99848.59;4959931;28;20152;-69
2022/06/04 06:17:17;;;;;;;2.85;1.20;;;;;;;25.58;29.89;99840.44;4959902;28;20048;-69
2022/06/04 06:19:43;;;;;;;1.98;1.42;;;;;;;25.48;30.20;99815.81;4959611;28;20042;-68
2022/06/04 06:22:09;;;;;;;2.42;1.63;;;;;;;25.64;29.73;99839.44;4955955;28;20500;-70
2022/06/04 06:24:37;;;;;;;3.05;1.60;;;;;;;25.66;29.89;99836.47;4972836;28;20100;-70
2022/06/04 06:27:08;;;;;;;8.63;1.70;;;;;;;26.12;29.55;99842.28;4970944;28;20042;-70
2022/06/04 06:29:34;;;;;;;3.65;1.40;;;;;;;25.96;29.27;99823.25;4990029;28;20054;-68
2022/06/04 06:32:00;;;;;;;1.50;1.40;;;;;;;26.17;28.95;99833.38;4960118;28;20046;-68
2022/06/04 06:34:26;;;;;;;4.28;1.50;;;;;;;26.24;28.82;99796.69;4993952;28;20141;-70
2022/06/04 06:36:52;;;;;;;2.17;1.35;;;;;;;26.37;29.03;99823.50;4976020;28;20140;-69
2022/06/04 06:39:18;;;;;;;2.78;1.60;;;;;;;26.75;28.53;99825.31;4976162;28;20576;-70
2022/06/04 06:41:49;;;;;;;8.20;2.10;;;;;;;26.84;28.59;99812.84;4993111;28;20092;-71
2022/06/04 06:44:15;;;;;;;3.28;1.80;;;;;;;27.04;28.63;99828.56;4992663;28;20512;-69
2022/06/04 06:46:44;;;;;;;22.05;3.00;;;;;;;27.34;28.48;99818.72;4976165;28;20512;-72
2022/06/04 06:49:19;;;;;;;3.25;1.75;;;;;;;27.48;27.99;99822.66;4992647;28;20042;-72
2022/06/04 06:51:50;;;;;;;5.85;1.90;;;;;;;27.58;27.68;99817.28;4976062;28;20073;-73
2022/06/04 06:54:18;;;;;;;6.68;1.67;;;;;;;27.61;27.29;99807.72;4992390;28;20112;-74
2022/06/04 06:56:46;;;;;;;2.97;1.80;;;;;;;27.77;27.17;99823.06;4976491;28;20050;-73
2022/06/04 06:59:12;;;;;;;3.85;1.77;;;;;;;27.60;27.60;99819.72;4976312;28;20088;-72
2022/06/04 07:01:38;;;;;;;3.90;1.77;;;;;;;27.35;27.72;99833.19;4975246;28;20058;-73
2022/06/04 07:04:04;;;;;;;5.20;1.58;;;;;;;27.82;27.41;99831.31;4973424;28;20101;-72
2022/06/04 07:06:31;;;;;;;2.22;1.70;;;;;;;28.28;26.58;99829.63;4990253;28;20059;-74
2022/06/04 07:08:58;;;;;;;2.03;1.83;;;;;;;28.66;25.84;99805.41;4959406;28;20049;-72
2022/06/04 07:11:24;;;;;;;3.85;2.00;;;;;;;29.17;25.33;99820.78;4992256;28;20093;-73
2022/06/04 07:13:51;;;;;;;3.75;1.58;;;;;;;29.39;24.75;99824.06;4973896;28;20088;-71
2022/06/04 07:16:17;;;;;;;5.40;1.95;;;;;;;29.94;24.62;99823.13;4994121;28;20046;-71
2022/06/04 07:18:43;;;;;;;2.60;1.35;;;;;;;30.12;23.90;99827.16;4973977;28;20046;-71
2022/06/04 07:21:09;;;;;;;3.88;1.20;;;;;;;30.27;23.49;99816.97;4973970;28;20846;-71
2022/06/04 07:23:36;;;;;;;3.40;1.50;;;;;;;30.59;22.68;99819.25;4957577;28;20034;-71
2022/06/04 07:26:02;;;;;;;5.07;1.75;;;;;;;30.41;23.31;99809.78;4958649;28;20053;-71
2022/06/04 07:28:28;;;;;;;3.00;1.50;;;;;;;31.07;22.74;99829.38;4957947;28;20452;-71
2022/06/04 07:30:56;;;;;;;4.72;1.60;;;;;;;31.60;21.88;99808.31;4974514;28;20077;-72
2022/06/04 07:33:22;;;;;;;3.20;1.50;;;;;;;32.44;20.91;99809.19;4958225;28;20045;-72
2022/06/04 07:35:50;;;;;;;2.17;1.50;;;;;;;33.44;20.02;99817.00;5006147;28;20046;-71
2022/06/04 07:38:16;;;;;;;2.53;1.40;;;;;;;34.19;18.65;99821.88;4974095;28;20038;-72
2022/06/04 07:40:43;;;;;;;1.67;1.50;;;;;;;35.63;17.34;99820.59;4958118;28;20065;-72
2022/06/04 07:43:09;;;;;;;3.45;1.50;;;;;;;37.71;15.65;99825.75;4972509;28;20101;-72
2022/06/04 07:45:35;;;;;;;3.55;1.20;;;;;;;39.88;13.49;99816.69;4957908;28;20046;-72
2022/06/04 07:48:01;;;;;;;1.55;1.08;;;;;;;41.94;11.76;99801.69;4973942;28;20054;-74
2022/06/04 07:50:27;;;;;;;4.18;1.20;;;;;;;43.36;10.53;99818.44;4991537;28;20038;-72
2022/06/04 07:52:53;;;;;;;4.30;1.00;;;;;;;44.09;9.83;99818.94;4989663;28;20072;-72
2022/06/04 07:55:19;;;;;;;4.05;1.02;;;;;;;42.75;9.69;99787.63;4973684;28;20046;-73
2022/06/04 07:57:45;;;;;;;4.30;2.05;;;;;;;42.89;10.17;99807.50;4973609;28;20125;-75
2022/06/04 08:00:11;;;;;;;3.00;1.20;;;;;;;44.45;9.14;99800.72;4957857;28;20145;-74
2022/06/04 08:02:42;;;;;;;4.40;1.10;;;;;;;45.08;8.62;99806.34;4974119;28;20547;-73
2022/06/04 08:05:12;;;;;;;1.67;1.00;;;;;;;46.19;8.00;99808.66;4989814;28;20050;-74
2022/06/04 08:07:38;;;;;;;2.25;1.17;;;;;;;46.70;7.29;99797.31;4941105;28;20038;-73
2022/06/04 08:10:05;;;;;;;3.72;0.90;;;;;;;47.09;7.13;99798.28;4989666;28;20136;-72
2022/06/04 08:12:34;;;;;;;2.90;1.00;;;;;;;45.59;7.37;99794.09;4941195;28;20472;-73
2022/06/04 08:15:03;;;;;;;2.00;1.00;;;;;;;43.47;8.61;99769.09;4987143;28;20051;-73
2022/06/04 08:17:33;;;;;;;2.00;1.10;;;;;;;41.26;10.82;99783.53;5009438;28;20056;-74
2022/06/04 08:19:58;;;;;;;3.45;1.17;;;;;;;42.68;10.06;99797.84;4977603;28;20088;-74
2022/06/04 08:22:24;;;;;;;3.45;1.10;;;;;;;42.80;9.81;99787.34;4960245;28;20045;-74
2022/06/04 08:24:50;;;;;;;4.50;1.17;;;;;;;44.32;8.28;99790.91;4992389;28;20037;-73
2022/06/04 08:27:16;;;;;;;2.05;1.30;;;;;;;45.63;7.65;99789.31;5005939;28;20042;-74
2022/06/04 08:29:42;;;;;;;4.72;0.80;;;;;;;45.61;7.16;99786.06;4979277;28;20041;-74
2022/06/04 08:32:11;;;;;;;3.40;1.10;;;;;;;44.22;7.98;99777.53;4968179;28;20049;-74
2022/06/04 08:34:39;;;;;;;1.60;0.95;;;;;;;42.72;9.08;99781.97;4973536;28;20046;-74
2022/06/04 08:37:06;;;;;;;3.28;1.40;;;;;;;40.72;10.54;99768.47;4996159;28;20168;-73
2022/06/04 08:39:32;;;;;;;4.90;1.50;;;;;;;41.32;10.20;99766.19;5024669;28;20046;-73
2022/06/04 08:42:10;;;;;;;3.63;1.38;;;;;;;43.72;8.98;99778.72;4974924;28;20046;-72
2022/06/04 08:44:45;;;;;;;2.95;1.00;;;;;;;45.62;7.28;99775.66;5009275;28;20053;-73
2022/06/04 08:47:36;;;;;;;3.53;0.95;;;;;;;43.81;8.21;99764.50;5008162;28;20396;-74
2022/06/04 08:50:16;;;;;;;5.28;1.40;;;;;;;41.56;9.52;99771.66;5008261;28;20049;-73
2022/06/04 08:52:54;;;;;;;2.95;1.40;;;;;;;41.59;9.57;99759.75;4976017;28;20185;-72
2022/06/04 08:58:38;;;;;;;3.63;1.08;;;;;;;46.24;6.63;99752.09;4995026;28;20066;-73
2022/06/04 09:01:11;;;;;;;3.08;1.17;;;;;;;45.11;7.54;99755.09;4978217;28;20473;-74
2022/06/04 09:03:52;;;;;;;3.47;1.10;;;;;;;43.91;8.26;99752.66;4996399;28;20489;-71
2022/06/04 09:06:26;;;;;;;3.55;1.17;;;;;;;42.66;8.87;99749.88;4996918;28;20455;-75
2022/06/04 09:08:59;;;;;;;2.05;1.25;;;;;;;41.24;9.45;99742.06;4984300;28;20140;-73
2022/06/04 09:11:43;;;;;;;4.25;1.20;;;;;;;42.72;8.26;99748.44;4993101;28;20616;-72
2022/06/04 09:14:47;;;;;;;7.30;1.17;;;;;;;44.20;7.63;99735.91;5029249;28;20049;-73
2022/06/04 09:17:18;;;;;;;2.13;1.25;;;;;;;45.85;6.80;99745.41;4995100;28;20071;-73
2022/06/04 09:19:50;;;;;;;1.83;1.15;;;;;;;46.84;6.12;99729.88;5011654;28;20041;-75
2022/06/04 09:22:24;;;;;;;2.10;1.30;;;;;;;45.68;6.29;99724.41;4995920;28;20038;-74
2022/06/04 09:24:52;;;;;;;4.53;2.08;;;;;;;46.51;6.86;99730.16;4988382;28;20768;-73
2022/06/04 09:27:28;;;;;;;3.13;2.20;;;;;;;48.13;5.48;99734.81;5012372;28;20050;-75
2022/06/04 09:30:12;;;;;;;5.15;1.30;;;;;;;45.32;6.86;99711.22;5006217;28;20147;-75
2022/06/04 09:33:15;;;;;;;4.70;1.25;;;;;;;42.43;8.95;99715.47;4991666;28;20045;-75
2022/06/04 09:35:42;;;;;;;5.03;2.10;;;;;;;40.56;10.25;99714.63;5006094;28;20057;-73
2022/06/04 09:38:26;;;;;;;2.72;1.83;;;;;;;38.98;10.46;99710.25;5011008;28;20060;-74
2022/06/04 09:41:01;;;;;;;5.40;1.50;;;;;;;38.00;11.08;99712.03;4994388;28;20067;-73
2022/06/04 09:43:27;;;;;;;2.80;1.33;;;;;;;37.07;12.07;99716.84;4992878;28;20045;-73
2022/06/04 09:45:57;;;;;;;5.60;1.77;;;;;;;36.62;12.66;99683.22;5008626;28;20120;-73
2022/06/04 09:48:26;;;;;;;4.38;3.15;;;;;;;36.05;12.95;99656.00;5024830;28;20045;-74
2022/06/04 09:50:55;;;;;;;6.10;2.10;;;;;;;36.06;13.04;99718.50;4976778;28;20104;-73
2022/06/04 09:53:46;;;;;;;3.95;1.90;;;;;;;37.95;11.95;99723.34;5009523;28;20077;-72
2022/06/04 09:56:15;;;;;;;5.93;1.40;;;;;;;38.90;11.30;99713.09;4998268;28;20049;-72
2022/06/04 09:58:43;;;;;;;2.15;1.40;;;;;;;38.97;10.79;99705.84;5024972;28;20058;-72
2022/06/04 10:01:23;;;;;;;2.85;1.30;;;;;;;39.15;10.94;99710.06;5009458;28;20165;-72
2022/06/04 10:04:13;;;;;;;3.72;1.33;;;;;;;38.87;11.12;99703.50;4980243;28;20045;-72
2022/06/04 10:06:40;;;;;;;3.30;1.70;;;;;;;40.14;10.43;99719.72;5009046;28;20038;-72
2022/06/04 10:11:59;;;;;;;1.60;1.30;;;;;;;44.57;7.37;99697.59;4980484;28;20095;-73
2022/06/04 10:14:39;;;;;;;2.50;1.40;;;;;;;46.17;6.71;99713.53;4979542;28;20112;-73
2022/06/04 10:17:21;;;;;;;;;;;;;;;47.77;5.66;99710.72;5012136;28;20120;-74
2022/06/04 10:19:54;;;;;;;1.45;1.20;;;;;;;47.09;5.69;99703.44;4995044;28;20299;-73
2022/06/04 10:22:21;;;;;;;5.43;2.15;;;;;;;47.01;6.11;99701.03;4979207;28;20049;-73
2022/06/04 10:24:52;;;;;;;5.50;2.90;;;;;;;46.67;5.90;99702.53;4995530;28;20504;-72
2022/06/04 10:27:46;;;;;;;9.02;3.63;;;;;;;46.99;5.93;99697.81;5011493;28;20042;-72
2022/06/04 10:30:26;;;;;;;6.28;1.60;;;;;;;46.14;6.47;99691.84;4962689;28;20088;-73
2022/06/04 10:32:54;;;;;;;;;;;;;;;45.53;6.11;99691.81;5013122;28;20053;-73
2022/06/04 10:35:49;;;;;;;1.27;0.98;;;;;;;42.73;7.50;99683.00;4995053;28;20284;-73
2022/06/04 10:38:55;;;;;;;2.35;1.88;;;;;;;39.83;8.80;99691.69;5010665;28;20038;-72
2022/06/04 10:41:40;;;;;;;5.05;1.65;;;;;;;37.97;11.00;99677.47;5010630;28;20042;-72
2022/06/04 10:44:27;;;;;;;1.92;1.40;;;;;;;36.94;11.81;99679.91;4994841;28;20104;-73
2022/06/04 10:47:03;;;;;;;2.17;1.52;;;;;;;36.35;12.76;99672.47;5011093;28;20148;-72
2022/06/04 10:49:50;;;;;;;2.30;1.85;;;;;;;38.05;12.06;99657.19;4978818;28;20057;-71
2022/06/04 10:52:24;;;;;;;1.85;1.60;;;;;;;39.63;10.67;99681.50;4978436;28;20133;-72
2022/06/04 10:54:56;;;;;;;1.90;1.70;;;;;;;40.56;9.56;99672.88;4994933;28;20137;-72
2022/06/04 10:57:44;;;;;;;2.38;1.50;;;;;;;40.23;10.52;99678.63;5011984;28;20047;-72
2022/06/04 11:00:29;;;;;;;2.65;1.42;;;;;;;39.30;10.68;99662.16;4978172;28;20054;-72
2022/06/04 11:03:38;;;;;;;2.22;1.40;;;;;;;38.47;11.56;99655.22;4961855;28;20122;-72
2022/06/04 11:06:28;;;;;;;4.07;1.67;;;;;;;37.55;12.10;99672.97;4977169;28;20046;-73
2022/06/04 11:09:15;;;;;;;8.05;2.95;;;;;;;37.07;11.87;99670.56;4993726;28;20511;-72
2022/06/04 11:11:51;;;;;;;11.35;7.30;;;;;;;36.62;12.14;99650.00;5010063;28;20423;-72
2022/06/04 11:14:34;;;;;;;3.53;2.03;;;;;;;36.26;12.54;99674.41;4994311;28;20066;-72
2022/06/04 11:17:21;;;;;;;3.15;1.48;;;;;;;35.97;13.16;99660.41;4978226;28;20128;-72
2022/06/04 11:20:06;;;;;;;5.55;1.77;;;;;;;35.32;13.87;99668.66;4977709;28;20049;-72
2022/06/04 11:22:40;;;;;;;3.53;2.10;;;;;;;35.26;14.30;99671.91;5010793;28;20149;-72
2022/06/04 11:25:24;;;;;;;4.43;1.83;;;;;;;35.38;14.72;99672.94;5010306;28;20140;-73
2022/06/04 11:28:10;;;;;;;4.25;1.60;;;;;;;35.69;14.16;99659.84;5010521;28;20053;-72
2022/06/04 11:30:46;;;;;;;3.80;1.98;;;;;;;35.51;14.31;99672.00;5026749;28;20387;-72
2022/06/04 11:33:24;;;;;;;6.32;2.85;;;;;;;35.92;13.89;99662.53;5010943;28;20139;-72
2022/06/04 11:36:17;;;;;;;9.40;2.35;;;;;;;35.89;14.16;99671.47;5009896;28;20524;-72
2022/06/04 11:39:33;;;;;;;10.73;4.88;;;;;;;35.64;14.07;99668.28;4991707;28;20060;-72
2022/06/04 11:42:05;;;;;;;11.45;6.38;;;;;;;35.37;14.18;99663.03;4977068;28;20053;-72
2022/06/04 11:45:01;;;;;;;6.90;4.60;;;;;;;34.86;15.02;99657.19;4994058;28;20081;-72
2022/06/04 11:48:02;;;;;;;8.38;5.65;;;;;;;34.55;14.18;99656.38;4977593;28;20127;-72
2022/06/04 11:50:51;;;;;;;3.22;1.80;;;;;;;34.41;13.95;99669.44;4993504;28;20420;-71
2022/06/04 11:53:22;;;;;;;2.92;1.90;;;;;;;34.34;14.21;99655.22;4977350;28;20049;-72
2022/06/04 11:56:13;;;;;;;6.47;2.97;;;;;;;34.07;13.99;99645.09;4977385;28;20045;-72
2022/06/04 11:59:10;;;;;;;4.82;3.35;;;;;;;34.30;14.66;99654.22;5008625;28;20130;-72
2022/06/04 12:01:44;;;;;;;4.82;2.38;;;;;;;34.35;14.45;99654.09;4977511;28;20038;-72
2022/06/04 12:04:20;;;;;;;5.15;2.30;;;;;;;34.22;14.15;99658.56;4960126;28;20046;-72
2022/06/04 12:07:01;;;;;;;24.48;3.55;;;;;;;33.58;13.77;99653.34;4976712;28;20057;-72
2022/06/04 12:09:35;;;;;;;3.38;2.30;;;;;;;33.69;14.64;99642.97;4976404;28;20480;-72
2022/06/04 12:12:12;;;;;;;13.13;8.05;;;;;;;34.16;14.91;99643.25;4991930;28;20054;-72